Time;durP1;ratioP1;P1;durP2;ratioP2;P2;SDS_P1;SDS_P2;PMS_P1;PMS_P2;Temp;Humidity;BMP_temperature;BMP_pressure;BME280_temperature;BME280_humidity;BME280_pressure;Samples;Min_cycle;Max_cycle;Signal;HPM_P1;HPM_P2
2022/05/03 00:00:08;;;;;;;13.23;8.43;;;7.20;99.90;;;;;;5052089;28;20056;-81
2022/05/03 00:02:49;;;;;;;12.80;8.38;;;7.10;99.90;;;;;;5043742;28;20084;-81
2022/05/03 00:05:21;;;;;;;12.52;8.35;;;7.10;99.90;;;;;;5060339;28;20055;-81
2022/05/03 00:11:40;;;;;;;10.30;7.10;;;7.00;99.90;;;;;;5122658;28;20055;-81
2022/05/03 00:14:17;;;;;;;10.20;6.65;;;6.90;99.90;;;;;;5123181;28;20054;-81
2022/05/03 00:16:45;;;;;;;9.10;5.95;;;6.90;99.90;;;;;;5121520;28;20176;-81
2022/05/03 00:19:11;;;;;;;7.30;5.68;;;6.90;99.90;;;;;;5123052;28;20089;-81
2022/05/03 00:21:38;;;;;;;7.20;5.28;;;6.80;99.90;;;;;;5121399;28;20035;-81
2022/05/03 00:27:44;;;;;;;7.72;5.50;;;6.70;99.90;;;;;;5125600;28;20043;-81
2022/05/03 00:30:11;;;;;;;7.95;5.50;;;6.70;99.90;;;;;;5128218;28;20044;-81
2022/05/03 00:32:39;;;;;;;7.30;5.13;;;6.60;99.90;;;;;;5123035;28;20470;-81
2022/05/03 00:35:08;;;;;;;8.05;5.40;;;6.60;99.90;;;;;;5122059;28;20066;-81
2022/05/03 00:37:34;;;;;;;7.03;4.90;;;6.50;99.90;;;;;;5121552;28;20108;-81
2022/05/03 00:40:00;;;;;;;6.93;5.07;;;6.60;99.90;;;;;;5122055;28;20043;-81
2022/05/03 00:42:35;;;;;;;6.60;4.97;;;6.60;99.90;;;;;;5121770;28;20091;-81
2022/05/03 00:45:28;;;;;;;7.00;5.03;;;6.50;99.90;;;;;;5121797;28;20107;-81
2022/05/03 00:48:04;;;;;;;6.45;4.78;;;6.50;99.90;;;;;;5124606;28;20044;-81
2022/05/03 00:50:58;;;;;;;7.07;4.43;;;6.50;99.90;;;;;;5142774;27;20406;-81
2022/05/03 00:53:32;;;;;;;6.30;4.90;;;6.40;99.90;;;;;;5142760;27;20156;-81
2022/05/03 00:56:12;;;;;;;7.07;5.18;;;6.50;99.90;;;;;;5131441;28;20044;-81
2022/05/03 00:59:26;;;;;;;8.40;5.50;;;6.50;99.90;;;;;;5126479;28;20108;-81
2022/05/03 01:02:11;;;;;;;6.78;5.28;;;6.50;99.90;;;;;;5063909;28;20099;-81
2022/05/03 01:04:42;;;;;;;8.10;5.80;;;6.30;99.90;;;;;;5063726;28;20045;-81
2022/05/03 01:11:21;;;;;;;7.93;5.57;;;6.30;99.90;;;;;;5063786;28;20086;-81
2022/05/03 01:13:57;;;;;;;7.20;5.88;;;6.20;99.90;;;;;;5064381;28;20123;-81
2022/05/03 01:16:38;;;;;;;8.63;5.80;;;6.20;99.90;;;;;;5063451;28;20400;-81
2022/05/03 01:19:28;;;;;;;8.02;6.30;;;6.20;99.90;;;;;;5063411;28;20059;-81
2022/05/03 01:26:04;;;;;;;8.50;6.38;;;6.10;99.90;;;;;;5023194;28;20053;-81
2022/05/03 01:28:33;;;;;;;9.52;6.63;;;6.20;99.90;;;;;;4991489;28;20087;-81
2022/05/03 01:31:07;;;;;;;10.05;7.63;;;6.10;99.90;;;;;;5006675;28;20054;-81
2022/05/03 01:33:38;;;;;;;9.48;6.85;;;6.10;99.90;;;;;;5006995;28;20061;-81
2022/05/03 01:36:07;;;;;;;10.40;7.75;;;6.10;99.90;;;;;;5008554;28;20108;-81
2022/05/03 01:39:00;;;;;;;9.77;7.50;;;6.10;99.90;;;;;;5103132;28;20084;-81
2022/05/03 01:42:01;;;;;;;12.13;8.32;;;6.10;99.90;;;;;;5086123;28;20073;-81
2022/05/03 01:44:40;;;;;;;9.93;7.60;;;6.10;99.90;;;;;;5006405;28;20607;-81
2022/05/03 01:47:35;;;;;;;9.52;7.25;;;6.00;99.90;;;;;;5011333;28;20084;-81
2022/05/03 01:50:20;;;;;;;7.88;6.35;;;5.90;99.90;;;;;;5011622;28;20093;-81
2022/05/03 01:52:52;;;;;;;8.30;6.70;;;5.70;99.90;;;;;;5007244;28;20056;-81
2022/05/03 01:55:21;;;;;;;8.85;6.75;;;5.70;99.90;;;;;;5023817;28;20065;-81
2022/05/03 01:58:11;;;;;;;7.63;6.20;;;5.70;99.90;;;;;;5022662;28;20102;-81
2022/05/03 02:00:39;;;;;;;9.65;6.90;;;5.80;99.90;;;;;;5022816;28;20046;-81
2022/05/03 02:03:28;;;;;;;7.43;6.63;;;5.80;99.90;;;;;;5042498;28;20150;-81
2022/05/03 02:06:04;;;;;;;7.93;6.82;;;5.80;99.90;;;;;;5062783;28;20131;-81
2022/05/03 02:08:46;;;;;;;8.40;6.90;;;5.70;99.90;;;;;;5061823;28;20049;-81
2022/05/03 02:11:28;;;;;;;9.27;7.45;;;5.70;99.90;;;;;;5061831;28;20051;-81
2022/05/03 02:16:58;;;;;;;9.77;7.88;;;5.70;99.90;;;;;;5062658;28;20045;-81
2022/05/03 02:19:30;;;;;;;10.75;8.40;;;5.70;99.90;;;;;;5061694;28;20053;-81
2022/05/03 02:25:42;;;;;;;12.18;9.70;;;5.70;99.90;;;;;;5081493;28;20051;-81
2022/05/03 02:28:37;;;;;;;11.23;8.63;;;5.70;99.90;;;;;;5081329;28;20179;-81
2022/05/03 02:31:07;;;;;;;11.82;8.93;;;5.70;99.90;;;;;;5081832;28;20040;-81
2022/05/03 02:33:38;;;;;;;10.98;8.77;;;5.60;99.90;;;;;;5081678;28;20161;-81
2022/05/03 02:36:07;;;;;;;11.32;8.45;;;5.60;99.90;;;;;;5082194;28;20036;-81
2022/05/03 02:42:14;;;;;;;10.73;8.48;;;5.40;99.90;;;;;;5081303;28;20046;-81
2022/05/03 02:44:40;;;;;;;10.50;8.65;;;5.40;99.90;;;;;;5081098;28;20108;-81
2022/05/03 02:47:11;;;;;;;11.77;8.73;;;5.40;99.90;;;;;;5081115;28;20084;-81
2022/05/03 02:50:03;;;;;;;10.98;8.63;;;5.50;99.90;;;;;;5081218;28;20060;-81
2022/05/03 02:53:06;;;;;;;12.23;9.30;;;5.50;99.90;;;;;;5064908;28;20063;-81
2022/05/03 02:55:44;;;;;;;12.60;9.63;;;5.50;99.90;;;;;;5097235;28;20086;-81
2022/05/03 02:58:22;;;;;;;12.65;9.95;;;5.50;99.90;;;;;;5124443;28;20043;-81
2022/05/03 03:04:09;;;;;;;13.93;10.02;;;5.60;99.90;;;;;;5123355;28;20083;-81
2022/05/03 03:06:39;;;;;;;15.13;10.43;;;5.60;99.90;;;;;;5043444;28;20052;-81
2022/05/03 03:09:07;;;;;;;13.77;10.35;;;5.60;99.90;;;;;;5043590;28;20118;-81
2022/05/03 03:11:46;;;;;;;15.10;11.18;;;5.50;99.90;;;;;;5060764;28;20104;-81
2022/05/03 03:14:25;;;;;;;16.42;11.07;;;5.50;99.90;;;;;;5060271;28;20053;-80
2022/05/03 03:17:00;;;;;;;15.00;10.85;;;5.50;99.90;;;;;;5043709;28;20065;-81
2022/05/03 03:19:38;;;;;;;16.40;11.10;;;5.60;99.90;;;;;;5060931;28;20484;-81
2022/05/03 03:22:10;;;;;;;16.10;11.75;;;5.70;99.90;;;;;;5044748;28;20049;-81
2022/05/03 03:24:38;;;;;;;16.70;11.52;;;5.70;99.90;;;;;;5043313;28;20061;-81
2022/05/03 03:27:05;;;;;;;17.90;12.13;;;5.70;99.90;;;;;;5044049;28;20071;-81
2022/05/03 03:29:31;;;;;;;17.23;12.63;;;5.80;99.90;;;;;;5061086;28;20115;-81
2022/05/03 03:32:00;;;;;;;17.17;11.90;;;5.90;99.90;;;;;;5044321;28;20520;-80
2022/05/03 03:34:28;;;;;;;17.50;12.52;;;6.00;99.90;;;;;;5061230;28;20045;-81
2022/05/03 03:37:01;;;;;;;18.75;13.00;;;6.00;99.90;;;;;;5060155;28;20048;-81
2022/05/03 03:39:30;;;;;;;21.52;13.18;;;6.00;99.90;;;;;;5043898;28;20083;-81
2022/05/03 03:42:01;;;;;;;19.98;13.98;;;6.10;99.90;;;;;;5054363;28;20136;-81
2022/05/03 03:44:27;;;;;;;18.70;12.90;;;6.30;99.90;;;;;;5132891;28;20059;-81
2022/05/03 03:46:53;;;;;;;18.15;13.32;;;6.20;99.90;;;;;;5131644;28;20072;-81
2022/05/03 03:49:19;;;;;;;19.58;12.85;;;6.30;99.90;;;;;;5122898;28;20451;-81
2022/05/03 03:51:45;;;;;;;20.13;12.77;;;6.40;99.90;;;;;;5122122;28;20069;-81
2022/05/03 03:54:12;;;;;;;18.13;12.63;;;6.50;99.90;;;;;;5123300;28;20397;-81
2022/05/03 03:56:38;;;;;;;17.80;11.68;;;6.60;99.90;;;;;;5123180;28;20047;-81
2022/05/03 03:59:04;;;;;;;16.85;12.15;;;6.60;99.90;;;;;;5121566;28;20090;-81
2022/05/03 04:01:31;;;;;;;17.48;11.75;;;6.70;99.90;;;;;;5122611;28;20482;-81
2022/05/03 04:03:58;;;;;;;18.15;13.07;;;6.70;99.90;;;;;;5122915;28;20075;-81
2022/05/03 04:06:24;;;;;;;20.20;12.85;;;6.70;99.90;;;;;;5123437;28;20051;-81
2022/05/03 04:08:49;;;;;;;17.23;12.90;;;6.80;99.90;;;;;;5122057;28;20047;-81
2022/05/03 04:11:18;;;;;;;19.00;13.82;;;6.80;99.90;;;;;;5121641;28;20050;-81
2022/05/03 04:13:45;;;;;;;22.48;14.13;;;6.80;99.90;;;;;;5122575;28;20487;-81
2022/05/03 04:16:11;;;;;;;18.77;13.18;;;6.80;99.90;;;;;;5121642;28;20040;-81
2022/05/03 04:18:46;;;;;;;20.23;14.15;;;6.90;99.90;;;;;;5121495;28;20058;-81
2022/05/03 04:21:17;;;;;;;19.02;14.15;;;6.80;99.90;;;;;;5124846;28;20131;-81
2022/05/03 04:23:44;;;;;;;20.05;14.32;;;6.90;99.90;;;;;;5125741;28;20435;-81
2022/05/03 04:26:13;;;;;;;20.75;14.10;;;6.90;99.90;;;;;;5127494;28;20152;-81
2022/05/03 04:28:39;;;;;;;22.52;13.48;;;6.90;99.90;;;;;;5125369;28;20068;-81
2022/05/03 04:31:05;;;;;;;19.70;12.90;;;6.90;99.90;;;;;;5127774;28;20039;-81
2022/05/03 04:33:31;;;;;;;21.38;13.90;;;7.00;99.90;;;;;;5126881;28;20433;-81
2022/05/03 04:35:57;;;;;;;19.90;13.48;;;7.00;99.90;;;;;;5125859;28;20077;-81
2022/05/03 04:38:23;;;;;;;19.55;13.35;;;7.00;99.90;;;;;;5126876;28;20040;-81
2022/05/03 04:40:48;;;;;;;19.73;13.32;;;7.10;99.90;;;;;;5126535;28;20126;-81
2022/05/03 04:43:14;;;;;;;18.90;12.80;;;7.10;99.90;;;;;;5125410;28;20040;-81
2022/05/03 04:45:40;;;;;;;19.42;12.90;;;7.20;99.90;;;;;;5126753;28;20440;-81
2022/05/03 04:48:06;;;;;;;19.10;13.75;;;7.20;99.90;;;;;;5126210;28;20051;-81
2022/05/03 04:50:31;;;;;;;17.60;12.75;;;7.30;99.90;;;;;;5126522;28;20073;-81
2022/05/03 04:52:57;;;;;;;17.75;13.05;;;7.30;99.90;;;;;;5126826;28;20035;-81
2022/05/03 04:55:23;;;;;;;17.42;12.70;;;7.30;99.90;;;;;;5125339;28;20099;-81
2022/05/03 04:57:49;;;;;;;18.15;13.38;;;7.30;99.90;;;;;;5126164;28;20036;-81
2022/05/03 05:00:16;;;;;;;19.40;13.77;;;7.40;99.90;;;;;;5125400;28;20094;-81
2022/05/03 05:02:41;;;;;;;17.42;13.40;;;7.40;99.90;;;;;;5127357;28;20043;-81
2022/05/03 05:05:08;;;;;;;17.55;13.30;;;7.50;99.90;;;;;;5126684;28;20043;-81
2022/05/03 05:07:33;;;;;;;19.17;12.98;;;7.50;99.90;;;;;;5126581;28;20040;-81
2022/05/03 05:12:43;;;;;;;19.27;13.05;;;7.90;99.90;;;;;;5125151;28;20134;-81
2022/05/03 05:15:09;;;;;;;20.85;14.00;;;7.70;99.90;;;;;;5125682;28;20066;-81
2022/05/03 05:17:35;;;;;;;18.70;13.35;;;7.70;99.90;;;;;;5126568;28;20069;-81
2022/05/03 05:20:01;;;;;;;19.35;13.55;;;7.70;99.90;;;;;;5126362;28;20102;-81
2022/05/03 05:22:27;;;;;;;20.48;13.75;;;7.80;99.90;;;;;;5126578;28;20044;-81
2022/05/03 05:28:34;;;;;;;20.70;13.68;;;7.90;99.90;;;;;;5135865;28;20031;-81
2022/05/03 05:30:59;;;;;;;18.80;12.10;;;7.90;99.90;;;;;;5134559;28;20107;-81
2022/05/03 05:33:25;;;;;;;18.35;12.35;;;7.90;99.90;;;;;;5142929;27;20143;-81
2022/05/03 05:35:51;;;;;;;20.63;13.52;;;8.00;99.90;;;;;;5125436;28;20043;-81
2022/05/03 05:38:18;;;;;;;17.33;12.70;;;8.20;99.90;;;;;;5124920;28;20047;-81
2022/05/03 05:40:46;;;;;;;18.65;12.57;;;8.10;99.90;;;;;;5124627;28;20398;-81
2022/05/03 05:43:12;;;;;;;18.50;12.77;;;8.60;99.90;;;;;;5127829;28;20054;-81
2022/05/03 05:45:38;;;;;;;18.15;13.10;;;8.20;99.90;;;;;;5124032;28;20043;-81
2022/05/03 05:48:04;;;;;;;18.38;11.70;;;8.30;99.90;;;;;;5124833;28;20055;-81
2022/05/03 05:50:30;;;;;;;17.83;12.30;;;8.30;99.90;;;;;;5125824;28;20066;-82
2022/05/03 05:55:42;;;;;;;19.48;13.00;;;8.40;99.90;;;;;;5125609;28;20077;-81
2022/05/03 05:58:08;;;;;;;19.67;13.18;;;8.50;99.90;;;;;;5125148;28;20087;-82
2022/05/03 06:00:34;;;;;;;21.38;13.23;;;8.50;99.90;;;;;;5124385;28;20051;-81
2022/05/03 06:02:59;;;;;;;17.58;12.65;;;8.60;99.90;;;;;;5125402;28;20137;-81
2022/05/03 06:05:26;;;;;;;20.48;13.82;;;8.60;99.90;;;;;;5125205;28;20402;-81
2022/05/03 06:07:53;;;;;;;22.10;13.20;;;8.70;99.90;;;;;;5129054;28;20070;-81
2022/05/03 06:10:19;;;;;;;21.70;14.05;;;9.10;99.90;;;;;;5122823;28;20448;-81
2022/05/03 06:12:45;;;;;;;21.25;13.88;;;9.10;99.90;;;;;;5125048;28;20435;-81
2022/05/03 06:15:12;;;;;;;21.13;13.85;;;8.90;99.90;;;;;;5122972;28;20048;-81
2022/05/03 06:17:40;;;;;;;24.73;15.23;;;8.70;99.90;;;;;;5123670;28;20052;-81
2022/05/03 06:20:07;;;;;;;23.63;14.63;;;8.80;99.90;;;;;;5123535;28;20087;-82
2022/05/03 06:22:33;;;;;;;25.85;15.50;;;8.80;99.90;;;;;;5124255;28;20055;-81
2022/05/03 06:28:40;;;;;;;27.65;16.10;;;8.90;99.90;;;;;;5124289;28;20151;-81
2022/05/03 06:31:06;;;;;;;24.65;15.52;;;8.90;99.90;;;;;;5124088;28;20063;-82
2022/05/03 06:33:32;;;;;;;32.00;16.52;;;9.00;99.90;;;;;;5123682;28;20456;-81
2022/05/03 06:35:57;;;;;;;30.08;17.70;;;9.10;99.90;;;;;;5139807;27;20139;-81
2022/05/03 06:38:23;;;;;;;32.30;17.33;;;9.10;99.90;;;;;;5123628;28;20104;-81
2022/05/03 06:40:49;;;;;;;35.33;19.23;;;9.10;99.90;;;;;;5123645;28;20036;-82
2022/05/03 06:43:14;;;;;;;34.63;19.60;;;9.20;99.90;;;;;;5122985;28;20040;-82
2022/05/03 06:45:40;;;;;;;36.58;19.90;;;9.20;99.90;;;;;;5122355;28;20039;-81
2022/05/03 06:48:06;;;;;;;40.15;21.42;;;9.60;99.90;;;;;;5123088;28;20051;-81
2022/05/03 06:50:32;;;;;;;38.33;20.40;;;9.30;99.90;;;;;;5122352;28;20043;-82
2022/05/03 06:52:58;;;;;;;45.72;22.95;;;9.40;99.90;;;;;;5117891;28;20490;-82
2022/05/03 06:55:24;;;;;;;44.45;23.73;;;9.40;99.90;;;;;;5122737;28;20048;-82
2022/05/03 06:57:50;;;;;;;47.72;23.77;;;9.50;99.90;;;;;;5122704;28;20114;-81
2022/05/03 07:00:15;;;;;;;51.58;24.92;;;9.50;99.90;;;;;;5120804;28;20052;-81
2022/05/03 07:02:42;;;;;;;49.38;24.38;;;9.50;99.90;;;;;;5119821;28;20047;-81
2022/05/03 07:05:08;;;;;;;47.53;23.42;;;9.50;99.90;;;;;;5120731;28;20059;-81
2022/05/03 07:07:35;;;;;;;48.10;22.38;;;9.50;99.90;;;;;;5120624;28;20083;-81
2022/05/03 07:13:41;;;;;;;46.38;19.65;;;9.60;99.90;;;;;;5122012;28;20045;-82
2022/05/03 07:16:07;;;;;;;44.03;19.42;;;9.70;99.90;;;;;;5120555;28;20463;-82
2022/05/03 07:24:02;;;;;;;38.75;17.80;;;9.60;99.90;;;;;;5120451;28;20112;-82
2022/05/03 07:26:27;;;;;;;37.70;17.13;;;9.60;99.90;;;;;;5120145;28;20131;-82
2022/05/03 07:28:53;;;;;;;36.10;16.38;;;9.60;99.90;;;;;;5121528;28;20036;-82
2022/05/03 07:31:20;;;;;;;33.05;16.10;;;9.70;99.90;;;;;;5121988;28;20463;-82
2022/05/03 07:33:47;;;;;;;33.17;16.33;;;9.80;99.90;;;;;;5118603;28;20483;-82
2022/05/03 07:36:12;;;;;;;29.77;14.70;;;10.10;99.90;;;;;;5119716;28;20173;-82
2022/05/03 07:38:40;;;;;;;29.05;13.73;;;9.80;99.90;;;;;;5118910;28;20056;-82
2022/05/03 07:41:06;;;;;;;27.77;13.63;;;9.80;99.90;;;;;;5117372;28;20047;-82
2022/05/03 07:43:33;;;;;;;25.63;11.05;;;9.70;99.90;;;;;;5117794;28;20372;-82
2022/05/03 07:45:59;;;;;;;24.42;10.70;;;10.00;99.90;;;;;;5117686;28;20055;-82
2022/05/03 07:48:24;;;;;;;19.45;9.88;;;9.80;99.90;;;;;;5122682;28;20047;-81
2022/05/03 07:50:50;;;;;;;18.40;8.38;;;9.70;99.90;;;;;;5121616;28;20047;-81
2022/05/03 07:53:17;;;;;;;16.20;7.75;;;9.80;99.90;;;;;;5123021;28;20051;-81
2022/05/03 07:55:47;;;;;;;17.90;7.50;;;9.70;99.90;;;;;;5122533;28;20048;-82
2022/05/03 07:58:14;;;;;;;13.70;6.45;;;9.60;99.90;;;;;;5125532;28;20067;-81
2022/05/03 08:00:39;;;;;;;14.40;6.38;;;10.00;99.90;;;;;;5126351;28;20103;-81
2022/05/03 08:03:05;;;;;;;17.55;7.15;;;9.60;99.90;;;;;;5125212;28;20032;-81
2022/05/03 08:05:31;;;;;;;17.00;7.13;;;9.50;99.90;;;;;;5125222;28;20549;-81
2022/05/03 08:07:57;;;;;;;18.80;6.85;;;9.50;99.90;;;;;;5126727;28;20070;-81
2022/05/03 08:14:04;;;;;;;16.00;6.80;;;9.50;99.90;;;;;;5126069;28;20042;-81
2022/05/03 08:16:31;;;;;;;14.45;5.75;;;9.40;99.90;;;;;;5126431;28;20497;-81
2022/05/03 08:19:00;;;;;;;19.63;6.35;;;9.50;99.90;;;;;;5124257;28;20047;-81
2022/05/03 08:21:27;;;;;;;19.60;6.90;;;9.50;99.90;;;;;;5125469;28;20040;-81
2022/05/03 08:23:53;;;;;;;18.23;6.43;;;9.50;99.90;;;;;;5124783;28;20048;-81
2022/05/03 08:26:19;;;;;;;18.05;6.22;;;9.60;99.90;;;;;;5124913;28;20047;-81
2022/05/03 08:28:45;;;;;;;17.92;6.22;;;9.90;99.90;;;;;;5123655;28;20429;-80
2022/05/03 08:31:11;;;;;;;13.48;6.40;;;9.80;99.90;;;;;;5124152;28;20032;-81
2022/05/03 08:33:37;;;;;;;19.95;6.97;;;10.30;99.90;;;;;;5122386;28;20058;-80
2022/05/03 08:36:03;;;;;;;19.33;6.90;;;10.30;99.90;;;;;;5123033;28;20044;-80
2022/05/03 08:43:59;;;;;;;22.20;7.00;;;10.40;99.90;;;;;;5122422;28;20052;-81
2022/05/03 08:46:25;;;;;;;16.10;6.43;;;10.40;99.90;;;;;;5123302;28;20077;-81
2022/05/03 08:48:56;;;;;;;17.13;6.97;;;10.50;99.90;;;;;;5123487;28;20126;-81
2022/05/03 08:51:23;;;;;;;19.70;6.90;;;10.60;99.90;;;;;;5125045;28;20471;-81
2022/05/03 08:53:50;;;;;;;18.98;6.97;;;10.70;99.90;;;;;;5128179;28;20043;-82
2022/05/03 08:56:19;;;;;;;15.80;6.30;;;10.70;99.90;;;;;;5132405;28;20044;-82
2022/05/03 08:58:45;;;;;;;20.92;6.95;;;10.70;99.90;;;;;;5132629;28;20047;-82
2022/05/03 09:01:11;;;;;;;15.07;6.15;;;10.90;99.90;;;;;;5123447;28;20040;-82
2022/05/03 09:03:37;;;;;;;17.30;6.45;;;10.60;99.90;;;;;;5124236;28;20051;-82
2022/05/03 09:06:07;;;;;;;15.88;6.70;;;10.60;99.90;;;;;;5124209;28;20467;-81
2022/05/03 09:08:33;;;;;;;19.83;6.40;;;10.50;99.90;;;;;;5124253;28;20083;-81
2022/05/03 09:11:00;;;;;;;19.00;6.80;;;10.50;99.90;;;;;;5125375;28;20122;-81
2022/05/03 09:13:28;;;;;;;18.40;5.85;;;10.40;99.90;;;;;;5125696;28;20039;-81
2022/05/03 09:16:08;;;;;;;16.90;6.50;;;10.30;99.90;;;;;;5125635;28;20067;-81
2022/05/03 09:18:34;;;;;;;15.02;5.93;;;10.20;99.90;;;;;;5125492;28;20494;-81
2022/05/03 09:23:51;;;;;;;19.10;6.47;;;10.20;99.90;;;;;;5125945;28;20040;-81
2022/05/03 09:26:28;;;;;;;16.75;5.93;;;10.20;99.90;;;;;;5124475;28;20069;-81
2022/05/03 09:28:59;;;;;;;20.33;6.32;;;10.20;99.90;;;;;;5123449;28;20044;-81
2022/05/03 09:31:30;;;;;;;22.33;6.13;;;10.30;99.90;;;;;;5126391;28;20047;-81
2022/05/03 09:33:57;;;;;;;17.80;5.65;;;10.30;99.90;;;;;;5125627;28;20043;-81
2022/05/03 09:36:23;;;;;;;19.85;6.93;;;10.30;99.90;;;;;;5124925;28;20075;-81
2022/05/03 09:38:55;;;;;;;19.10;6.18;;;10.40;99.90;;;;;;5125190;28;20119;-81
2022/05/03 09:41:21;;;;;;;17.45;6.15;;;10.50;99.90;;;;;;5123780;28;20053;-81
2022/05/03 09:44:05;;;;;;;19.70;6.28;;;10.60;99.90;;;;;;5123999;28;20079;-81
2022/05/03 09:46:52;;;;;;;14.45;5.25;;;10.70;99.90;;;;;;5123109;28;20495;-81
2022/05/03 09:49:20;;;;;;;18.90;5.55;;;10.70;99.90;;;;;;5124548;28;20047;-81
2022/05/03 09:51:46;;;;;;;17.60;5.32;;;10.80;99.90;;;;;;5139433;27;20043;-81
2022/05/03 09:54:13;;;;;;;13.75;4.90;;;11.00;99.90;;;;;;5124358;28;20385;-81
2022/05/03 09:56:41;;;;;;;14.35;4.22;;;11.00;99.90;;;;;;5123794;27;20047;-82
2022/05/03 09:59:08;;;;;;;13.25;4.50;;;11.10;99.90;;;;;;5124870;28;20043;-81
2022/05/03 10:01:35;;;;;;;15.68;4.32;;;11.20;99.90;;;;;;5124521;28;20055;-81
2022/05/03 10:04:05;;;;;;;10.10;3.92;;;11.30;99.90;;;;;;5123628;28;20051;-82
2022/05/03 10:06:32;;;;;;;11.02;3.45;;;11.30;99.90;;;;;;5123216;28;20145;-81
2022/05/03 10:08:59;;;;;;;12.93;4.07;;;11.40;99.90;;;;;;5122990;28;20048;-81
2022/05/03 10:11:26;;;;;;;12.68;4.50;;;11.40;99.90;;;;;;5123460;28;20108;-82
2022/05/03 10:13:55;;;;;;;11.80;3.47;;;11.40;99.90;;;;;;5122508;28;20083;-81
2022/05/03 10:22:00;;;;;;;13.52;4.22;;;11.60;99.90;;;;;;5122792;28;20052;-82
2022/05/03 10:24:26;;;;;;;12.88;3.33;;;11.50;99.90;;;;;;5122935;28;20043;-81
2022/05/03 10:26:52;;;;;;;10.13;3.25;;;11.60;99.90;;;;;;5121271;28;20094;-82
2022/05/03 10:29:20;;;;;;;14.82;3.60;;;11.70;99.90;;;;;;5123768;28;20043;-82
2022/05/03 10:32:08;;;;;;;11.63;3.13;;;11.80;99.90;;;;;;5122930;28;20040;-81
2022/05/03 10:34:46;;;;;;;8.98;3.20;;;11.80;99.90;;;;;;5123512;28;20051;-82
2022/05/03 10:37:28;;;;;;;10.07;3.13;;;11.90;99.90;;;;;;5121871;28;20048;-81
2022/05/03 10:39:54;;;;;;;9.15;3.50;;;11.80;99.90;;;;;;5121186;28;20051;-82
2022/05/03 10:42:26;;;;;;;10.40;2.80;;;11.80;99.90;;;;;;5125008;28;20039;-81
2022/05/03 10:44:54;;;;;;;9.38;2.80;;;12.20;99.90;;;;;;5122642;27;20490;-82
2022/05/03 10:47:38;;;;;;;9.75;2.97;;;12.20;99.90;;;;;;5123978;28;20044;-82
2022/05/03 10:50:13;;;;;;;11.32;3.17;;;12.10;99.90;;;;;;5123663;28;20089;-81
2022/05/03 10:52:42;;;;;;;9.35;3.08;;;12.10;99.90;;;;;;5120353;28;20047;-82
2022/05/03 10:55:09;;;;;;;12.27;3.08;;;12.20;99.90;;;;;;5121395;28;20506;-82
2022/05/03 10:58:12;;;;;;;11.45;3.20;;;12.40;99.90;;;;;;5119023;28;20039;-81
2022/05/03 11:00:59;;;;;;;12.45;2.97;;;12.50;99.90;;;;;;5121717;28;20047;-82
2022/05/03 11:03:25;;;;;;;8.13;2.60;;;12.50;99.90;;;;;;5121098;28;20039;-82
2022/05/03 11:06:22;;;;;;;8.23;2.67;;;12.80;99.90;;;;;;5119432;28;20051;-82
2022/05/03 11:12:58;;;;;;;8.88;2.38;;;13.10;99.90;;;;;;5120333;28;20445;-81
2022/05/03 11:15:24;;;;;;;8.73;2.50;;;13.30;99.90;;;;;;5039652;28;20056;-82
2022/05/03 11:17:51;;;;;;;10.10;3.33;;;13.30;99.90;;;;;;5056490;28;20259;-82
2022/05/03 11:20:21;;;;;;;8.30;2.60;;;13.40;99.90;;;;;;5040884;28;20063;-82
2022/05/03 11:22:47;;;;;;;11.25;2.92;;;13.50;99.90;;;;;;5060487;28;20044;-82
2022/05/03 11:28:57;;;;;;;9.85;3.00;;;13.40;99.90;;;;;;5055620;28;20059;-81
2022/05/03 11:31:25;;;;;;;9.15;2.60;;;13.60;99.90;;;;;;5055695;28;20045;-82
2022/05/03 11:33:52;;;;;;;9.55;2.90;;;13.50;99.90;;;;;;5039089;28;20055;-82
2022/05/03 11:36:19;;;;;;;10.48;2.78;;;13.50;99.90;;;;;;5057226;28;20270;-81
2022/05/03 11:38:48;;;;;;;7.38;2.70;;;13.50;99.90;;;;;;5038698;28;20057;-81
2022/05/03 11:41:14;;;;;;;9.52;2.60;;;13.50;99.90;;;;;;5040562;28;20499;-82
2022/05/03 11:43:39;;;;;;;8.57;2.28;;;13.50;99.90;;;;;;5040827;28;20053;-82
2022/05/03 11:46:05;;;;;;;7.97;2.60;;;13.60;99.90;;;;;;5056328;28;20049;-82
2022/05/03 11:48:31;;;;;;;11.10;3.08;;;13.60;99.90;;;;;;5040847;28;20055;-81
2022/05/03 11:56:26;;;;;;;6.00;2.10;;;13.40;99.90;;;;;;5120302;28;20479;-82
2022/05/03 11:58:54;;;;;;;8.55;2.35;;;13.40;99.90;;;;;;5119312;28;20051;-81
2022/05/03 12:01:20;;;;;;;8.40;2.25;;;13.40;99.90;;;;;;5119439;28;20065;-81
2022/05/03 12:03:47;;;;;;;5.95;1.92;;;13.40;99.90;;;;;;5120687;28;20047;-81
2022/05/03 12:06:15;;;;;;;6.88;2.00;;;13.50;99.90;;;;;;5120798;28;20494;-82
2022/05/03 12:08:40;;;;;;;7.30;2.10;;;13.60;99.90;;;;;;5120143;28;20067;-81
2022/05/03 12:11:18;;;;;;;6.55;2.45;;;13.80;99.90;;;;;;5120205;28;20403;-82
2022/05/03 12:13:44;;;;;;;8.23;2.30;;;13.90;99.90;;;;;;5118908;28;20236;-81
2022/05/03 12:16:11;;;;;;;6.45;2.30;;;14.10;99.90;;;;;;5120650;28;20078;-82
2022/05/03 12:18:38;;;;;;;5.28;2.10;;;14.20;99.90;;;;;;5117812;28;20047;-82
2022/05/03 12:21:07;;;;;;;9.13;2.67;;;14.50;99.90;;;;;;5119048;28;20047;-81
2022/05/03 12:23:32;;;;;;;7.95;2.20;;;14.60;99.90;;;;;;5119147;28;20035;-80
2022/05/03 12:29:44;;;;;;;7.40;2.55;;;14.10;99.90;;;;;;5119919;28;20043;-82
2022/05/03 12:32:18;;;;;;;7.25;2.63;;;13.80;99.90;;;;;;5121111;28;20043;-82
2022/05/03 12:35:01;;;;;;;5.57;2.42;;;13.80;99.90;;;;;;5119936;28;20173;-81
2022/05/03 12:37:27;;;;;;;6.07;2.20;;;13.70;99.90;;;;;;5118699;28;20046;-81
2022/05/03 12:39:59;;;;;;;6.82;2.40;;;13.80;99.90;;;;;;5119489;28;20051;-82
2022/05/03 12:42:25;;;;;;;7.43;2.72;;;13.90;99.90;;;;;;5139232;27;20126;-81
2022/05/03 12:44:54;;;;;;;7.25;2.15;;;13.90;99.90;;;;;;5124167;28;20086;-82
2022/05/03 12:47:21;;;;;;;8.57;2.80;;;14.10;99.90;;;;;;5123481;28;20043;-81
2022/05/03 12:49:47;;;;;;;7.65;2.40;;;13.90;99.90;;;;;;5122765;28;20047;-81
2022/05/03 12:52:14;;;;;;;5.72;1.83;;;13.80;99.90;;;;;;5123769;28;20140;-81
2022/05/03 12:54:44;;;;;;;4.63;1.70;;;13.70;99.90;;;;;;5123842;28;20463;-81
2022/05/03 12:59:56;;;;;;;6.10;2.28;;;13.60;99.90;;;;;;5123542;28;20072;-81
2022/05/03 13:02:25;;;;;;;6.20;1.90;;;13.50;99.90;;;;;;5122940;28;20043;-82
2022/05/03 13:04:51;;;;;;;7.60;1.77;;;13.60;99.90;;;;;;5123783;28;20043;-81
2022/05/03 13:07:17;;;;;;;3.97;1.90;;;13.60;99.90;;;;;;5123847;28;20039;-81
2022/05/03 13:09:43;;;;;;;5.18;1.80;;;13.70;99.90;;;;;;5122814;27;20131;-82
2022/05/03 13:12:09;;;;;;;5.30;1.80;;;13.60;99.90;;;;;;5124895;28;20119;-81
2022/05/03 13:14:36;;;;;;;5.97;1.85;;;13.70;99.90;;;;;;5123579;28;20138;-81
2022/05/03 13:17:02;;;;;;;5.43;1.70;;;13.90;99.90;;;;;;5124169;28;20478;-82
2022/05/03 13:19:28;;;;;;;7.30;1.73;;;14.10;99.90;;;;;;5140201;27;20043;-81
2022/05/03 13:21:56;;;;;;;4.25;1.60;;;14.40;99.90;;;;;;5123999;28;20509;-81
2022/05/03 13:24:23;;;;;;;5.25;1.70;;;14.30;99.90;;;;;;5122165;28;20051;-81
2022/05/03 13:26:49;;;;;;;5.75;2.05;;;14.10;99.90;;;;;;5123263;28;20036;-81
2022/05/03 13:29:17;;;;;;;10.00;2.40;;;14.00;99.90;;;;;;5123955;28;20048;-82
2022/05/03 13:31:46;;;;;;;7.07;1.70;;;14.00;99.90;;;;;;5139242;27;20050;-82
2022/05/03 13:34:13;;;;;;;7.68;1.60;;;14.00;99.90;;;;;;5122468;28;20091;-82
2022/05/03 13:42:09;;;;;;;4.28;1.80;;;13.90;99.90;;;;;;5124067;28;20058;-82
2022/05/03 13:44:36;;;;;;;5.50;1.73;;;14.00;99.90;;;;;;5126014;28;20044;-81
2022/05/03 13:47:04;;;;;;;5.25;1.95;;;13.90;99.90;;;;;;5120815;28;20048;-81
2022/05/03 13:49:30;;;;;;;4.78;1.83;;;13.80;99.90;;;;;;5119843;28;20364;-82
2022/05/03 13:51:55;;;;;;;6.68;1.83;;;13.90;99.90;;;;;;5119183;28;20071;-81
2022/05/03 13:54:21;;;;;;;6.93;1.95;;;13.90;99.90;;;;;;5120601;28;20040;-82
2022/05/03 13:56:47;;;;;;;7.28;2.30;;;13.90;99.90;;;;;;5121191;28;20387;-82
2022/05/03 13:59:12;;;;;;;6.00;1.70;;;13.90;99.90;;;;;;5119109;28;20044;-82
2022/05/03 14:01:39;;;;;;;11.20;1.75;;;14.10;99.90;;;;;;5117634;28;20506;-82
2022/05/03 14:04:05;;;;;;;8.27;2.10;;;14.20;99.90;;;;;;5118650;28;20482;-82
2022/05/03 14:06:31;;;;;;;6.82;2.00;;;14.40;99.90;;;;;;5120632;28;20067;-82
2022/05/03 14:08:57;;;;;;;7.57;1.70;;;14.50;99.90;;;;;;5119699;28;20074;-82
2022/05/03 14:11:23;;;;;;;5.70;1.65;;;14.50;99.90;;;;;;5118353;28;20398;-82
2022/05/03 14:13:49;;;;;;;4.20;1.77;;;14.80;99.90;;;;;;5119881;28;20035;-82
2022/05/03 14:16:16;;;;;;;5.10;1.80;;;14.90;99.90;;;;;;5119630;28;20042;-82
2022/05/03 14:18:43;;;;;;;6.13;2.20;;;15.00;99.90;;;;;;5118660;28;20051;-82
2022/05/03 14:21:09;;;;;;;7.32;1.92;;;15.00;99.90;;;;;;5120018;28;20062;-82
2022/05/03 14:23:35;;;;;;;7.70;2.00;;;14.90;99.90;;;;;;5120422;28;20044;-82
2022/05/03 14:29:42;;;;;;;7.45;2.58;;;14.40;99.90;;;;;;5119648;28;20058;-82
2022/05/03 14:32:08;;;;;;;6.25;1.73;;;14.30;99.90;;;;;;5118351;28;20043;-81